createdAt,value
2018-03-09T00:00:08.518Z,995.7
2018-03-09T00:00:49.088Z,995.73
2018-03-09T00:01:29.640Z,995.74
2018-03-09T00:02:10.339Z,995.74
2018-03-09T00:02:50.905Z,995.72
2018-03-09T00:03:31.453Z,995.75
2018-03-09T00:04:12.010Z,995.73
2018-03-09T00:04:52.576Z,995.71
2018-03-09T00:05:33.135Z,995.8
2018-03-09T00:06:13.697Z,995.79
2018-03-09T00:06:54.250Z,995.81
2018-03-09T00:07:34.814Z,995.78
2018-03-09T00:08:15.384Z,995.82
2018-03-09T00:08:55.926Z,995.81
2018-03-09T00:09:36.484Z,995.85
2018-03-09T00:10:17.048Z,995.85
2018-03-09T00:10:57.601Z,995.83
2018-03-09T00:11:38.156Z,995.84
2018-03-09T00:12:18.711Z,995.89
2018-03-09T00:12:59.266Z,995.88
2018-03-09T00:13:39.818Z,995.87
2018-03-09T00:14:20.393Z,995.83
2018-03-09T00:15:00.969Z,995.86
2018-03-09T00:15:41.550Z,995.85
2018-03-09T00:16:22.116Z,995.9
2018-03-09T00:17:02.661Z,995.85
2018-03-09T00:17:43.223Z,995.88
2018-03-09T00:18:23.796Z,995.86
2018-03-09T00:19:04.346Z,995.94
2018-03-09T00:19:44.918Z,995.95
2018-03-09T00:20:25.484Z,995.95
2018-03-09T00:21:06.148Z,995.91
2018-03-09T00:21:46.707Z,995.97
2018-03-09T00:22:27.284Z,996.02
2018-03-09T00:23:07.842Z,995.99
2018-03-09T00:23:48.412Z,996.02
2018-03-09T00:24:28.965Z,996.02
2018-03-09T00:25:09.512Z,996.05
2018-03-09T00:25:50.068Z,996.05
2018-03-09T00:26:30.630Z,996.04
2018-03-09T00:27:11.188Z,996.04
2018-03-09T00:27:51.746Z,996.1
2018-03-09T00:28:32.309Z,996.08
2018-03-09T00:29:12.862Z,996.08
2018-03-09T00:29:53.432Z,996.13
2018-03-09T00:30:33.981Z,996.1
2018-03-09T00:31:14.529Z,996.12
2018-03-09T00:31:55.093Z,996.13
2018-03-09T00:32:35.646Z,996.16
2018-03-09T00:33:16.211Z,996.14
2018-03-09T00:33:56.767Z,996.18
2018-03-09T00:34:37.328Z,996.15
2018-03-09T00:35:17.935Z,996.15
2018-03-09T00:35:58.461Z,996.14
2018-03-09T00:36:39.018Z,996.14
2018-03-09T00:37:19.579Z,996.14
2018-03-09T00:38:00.161Z,996.15
2018-03-09T00:38:40.728Z,996.17
2018-03-09T00:39:21.324Z,996.12
2018-03-09T00:40:01.896Z,996.13
2018-03-09T00:40:42.452Z,996.13
2018-03-09T00:41:23.011Z,996.19
2018-03-09T00:42:03.653Z,996.22
2018-03-09T00:42:44.128Z,996.19
2018-03-09T00:43:24.666Z,996.18
2018-03-09T00:44:05.222Z,996.17
2018-03-09T00:44:45.772Z,996.18
2018-03-09T00:45:26.606Z,996.25
2018-03-09T00:46:07.164Z,996.31
2018-03-09T00:46:47.719Z,996.22
2018-03-09T00:47:28.280Z,996.29
2018-03-09T00:48:08.836Z,996.27
2018-03-09T00:48:49.389Z,996.23
2018-03-09T00:49:29.937Z,996.29
2018-03-09T00:50:10.496Z,996.26
2018-03-09T00:50:51.177Z,996.29
2018-03-09T00:51:31.750Z,996.26
2018-03-09T00:52:12.305Z,996.23
2018-03-09T00:52:52.879Z,996.3
2018-03-09T00:53:33.449Z,996.32
2018-03-09T00:54:13.999Z,996.33
2018-03-09T00:54:54.553Z,996.35
2018-03-09T00:55:35.136Z,996.33
2018-03-09T00:56:15.704Z,996.31
2018-03-09T00:56:56.261Z,996.36
2018-03-09T00:57:36.814Z,996.3
2018-03-09T00:58:17.370Z,996.32
2018-03-09T00:58:57.932Z,996.3
2018-03-09T00:59:38.490Z,996.26
2018-03-09T01:00:19.054Z,996.27
2018-03-09T01:00:59.629Z,996.26
2018-03-09T01:01:40.186Z,996.26
2018-03-09T01:02:20.747Z,996.3
2018-03-09T01:03:01.305Z,996.29
2018-03-09T01:03:41.850Z,996.26
2018-03-09T01:04:22.440Z,996.28
2018-03-09T01:05:03.016Z,996.32
2018-03-09T01:05:43.550Z,996.31
2018-03-09T01:06:24.108Z,996.32
2018-03-09T01:07:04.688Z,996.28
2018-03-09T01:07:45.243Z,996.28
2018-03-09T01:08:25.805Z,996.3
2018-03-09T01:09:06.387Z,996.27
2018-03-09T01:09:46.980Z,996.3
2018-03-09T01:10:27.539Z,996.27
2018-03-09T01:11:08.118Z,996.28
2018-03-09T01:11:48.682Z,996.28
2018-03-09T01:12:29.257Z,996.28
2018-03-09T01:13:09.822Z,996.28
2018-03-09T01:13:50.423Z,996.28
2018-03-09T01:14:30.971Z,996.31
2018-03-09T01:15:11.524Z,996.28
2018-03-09T01:15:52.070Z,996.28
2018-03-09T01:16:35.198Z,996.31
2018-03-09T01:17:15.764Z,996.32
2018-03-09T01:17:56.320Z,996.31
2018-03-09T01:18:36.893Z,996.34
2018-03-09T01:19:17.487Z,996.34
2018-03-09T01:19:58.047Z,996.29
2018-03-09T01:20:38.632Z,996.25
2018-03-09T01:21:19.145Z,996.3
2018-03-09T01:21:59.691Z,996.25
2018-03-09T01:22:40.253Z,996.29
2018-03-09T01:23:20.813Z,996.29
2018-03-09T01:24:01.371Z,996.31
2018-03-09T01:24:41.926Z,996.33
2018-03-09T01:25:22.490Z,996.4
2018-03-09T01:26:03.043Z,996.4
2018-03-09T01:26:43.595Z,996.39
2018-03-09T01:27:24.152Z,996.36
2018-03-09T01:28:04.711Z,996.4
2018-03-09T01:28:45.259Z,996.38
2018-03-09T01:29:25.820Z,996.4
2018-03-09T01:30:06.373Z,996.41
2018-03-09T01:30:46.920Z,996.44
2018-03-09T01:31:27.508Z,996.41
2018-03-09T01:32:08.120Z,996.42
2018-03-09T01:32:48.659Z,996.39
2018-03-09T01:33:29.217Z,996.44
2018-03-09T01:34:09.773Z,996.42
2018-03-09T01:34:50.345Z,996.45
2018-03-09T01:35:30.910Z,996.41
2018-03-09T01:36:11.460Z,996.42
2018-03-09T01:36:52.008Z,996.45
2018-03-09T01:37:32.558Z,996.35
2018-03-09T01:38:13.099Z,996.37
2018-03-09T01:38:53.655Z,996.42
2018-03-09T01:39:34.204Z,996.45
2018-03-09T01:40:14.760Z,996.4
2018-03-09T01:40:55.313Z,996.42
2018-03-09T01:41:35.872Z,996.48
2018-03-09T01:42:16.414Z,996.47
2018-03-09T01:42:56.966Z,996.47
2018-03-09T01:43:37.532Z,996.49
2018-03-09T01:44:18.100Z,996.47
2018-03-09T01:44:58.662Z,996.48
2018-03-09T01:45:39.221Z,996.46
2018-03-09T01:46:19.783Z,996.44
2018-03-09T01:47:00.336Z,996.42
2018-03-09T01:47:40.886Z,996.44
2018-03-09T01:48:21.464Z,996.42
2018-03-09T01:49:02.021Z,996.39
2018-03-09T01:49:42.599Z,996.42
2018-03-09T01:50:23.166Z,996.41
2018-03-09T01:51:03.808Z,996.41
2018-03-09T01:51:44.376Z,996.41
2018-03-09T01:52:24.945Z,996.43
2018-03-09T01:53:05.503Z,996.44
2018-03-09T01:53:46.053Z,996.41
2018-03-09T01:54:26.627Z,996.42
2018-03-09T01:55:07.155Z,996.41
2018-03-09T01:55:47.721Z,996.42
2018-03-09T01:56:28.280Z,996.44
2018-03-09T01:57:08.820Z,996.41
2018-03-09T01:57:56.929Z,996.45
2018-03-09T01:58:37.483Z,996.43
2018-03-09T01:59:18.046Z,996.51
2018-03-09T01:59:58.594Z,996.46
2018-03-09T02:00:39.278Z,996.42
2018-03-09T02:01:19.848Z,996.47
2018-03-09T02:02:00.401Z,996.42
2018-03-09T02:02:40.973Z,996.46
2018-03-09T02:03:21.527Z,996.45
2018-03-09T02:04:02.085Z,996.49
2018-03-09T02:04:42.648Z,996.51
2018-03-09T02:05:23.205Z,996.48
2018-03-09T02:06:03.786Z,996.51
2018-03-09T02:06:44.381Z,996.52
2018-03-09T02:07:24.946Z,996.51
2018-03-09T02:08:05.504Z,996.52
2018-03-09T02:08:46.059Z,996.49
2018-03-09T02:09:26.611Z,996.51
2018-03-09T02:10:07.200Z,996.55
2018-03-09T02:10:47.755Z,996.55
2018-03-09T02:11:28.308Z,996.53
2018-03-09T02:12:08.869Z,996.52
2018-03-09T02:12:49.422Z,996.47
2018-03-09T02:13:29.994Z,996.53
2018-03-09T02:14:10.557Z,996.54
2018-03-09T02:14:51.114Z,996.53
2018-03-09T02:15:31.673Z,996.57
2018-03-09T02:16:12.216Z,996.54
2018-03-09T02:16:52.777Z,996.5
2018-03-09T02:17:33.357Z,996.54
2018-03-09T02:18:13.922Z,996.6
2018-03-09T02:18:54.474Z,996.62
2018-03-09T02:19:35.024Z,996.57
2018-03-09T02:20:15.598Z,996.56
2018-03-09T02:20:56.152Z,996.58
2018-03-09T02:21:36.706Z,996.54
2018-03-09T02:22:17.258Z,996.53
2018-03-09T02:22:57.830Z,996.53
2018-03-09T02:23:38.407Z,996.55
2018-03-09T02:24:18.966Z,996.52
2018-03-09T02:24:59.593Z,996.56
2018-03-09T02:25:40.140Z,996.52
2018-03-09T02:26:20.699Z,996.54
2018-03-09T02:27:01.251Z,996.53
2018-03-09T02:27:41.804Z,996.6
2018-03-09T02:28:22.393Z,996.54
2018-03-09T02:29:02.961Z,996.56
2018-03-09T02:29:43.516Z,996.54
2018-03-09T02:30:24.125Z,996.64
2018-03-09T02:31:04.654Z,996.57
2018-03-09T02:31:45.237Z,996.58
2018-03-09T02:32:25.796Z,996.59
2018-03-09T02:33:06.352Z,996.6
2018-03-09T02:33:46.926Z,996.64
2018-03-09T02:34:27.478Z,996.67
2018-03-09T02:35:08.042Z,996.65
2018-03-09T02:35:48.595Z,996.68
2018-03-09T02:36:29.160Z,996.66
2018-03-09T02:37:09.722Z,996.67
2018-03-09T02:37:50.291Z,996.66
2018-03-09T02:38:30.848Z,996.6
2018-03-09T02:39:11.402Z,996.69
2018-03-09T02:39:51.960Z,996.67
2018-03-09T02:40:32.510Z,996.71
2018-03-09T02:41:13.076Z,996.69
2018-03-09T02:41:53.625Z,996.69
2018-03-09T02:42:34.180Z,996.71
2018-03-09T02:43:14.746Z,996.69
2018-03-09T02:43:55.304Z,996.74
2018-03-09T02:44:35.856Z,996.74
2018-03-09T02:45:16.410Z,996.72
2018-03-09T02:45:56.977Z,996.72
2018-03-09T02:46:37.538Z,996.75
2018-03-09T02:47:18.154Z,996.76
2018-03-09T02:47:58.639Z,996.72
2018-03-09T02:48:39.188Z,996.73
2018-03-09T02:49:19.797Z,996.74
2018-03-09T02:50:00.350Z,996.74
2018-03-09T02:50:40.916Z,996.78
2018-03-09T02:51:21.479Z,996.71
2018-03-09T02:52:02.034Z,996.69
2018-03-09T02:52:42.603Z,996.71
2018-03-09T02:53:23.148Z,996.76
2018-03-09T02:54:03.718Z,996.78
2018-03-09T02:54:44.270Z,996.75
2018-03-09T02:55:24.923Z,996.78
2018-03-09T02:56:05.488Z,996.82
2018-03-09T02:56:46.054Z,996.77
2018-03-09T02:57:26.610Z,996.78
2018-03-09T02:58:07.159Z,996.82
2018-03-09T02:58:47.740Z,996.8
2018-03-09T02:59:28.295Z,996.75
2018-03-09T03:00:08.850Z,996.79
2018-03-09T03:00:49.403Z,996.76
2018-03-09T03:01:29.976Z,996.78
2018-03-09T03:02:10.605Z,996.8
2018-03-09T03:02:51.226Z,996.83
2018-03-09T03:03:31.778Z,996.76
2018-03-09T03:04:12.332Z,996.77
2018-03-09T03:04:52.885Z,996.73
2018-03-09T03:05:33.582Z,996.8
2018-03-09T03:06:14.145Z,996.79
2018-03-09T03:06:54.704Z,996.84
2018-03-09T03:07:35.259Z,996.83
2018-03-09T03:08:16.087Z,996.81
2018-03-09T03:08:56.656Z,996.8
2018-03-09T03:09:37.202Z,996.86
2018-03-09T03:10:17.760Z,996.8
2018-03-09T03:10:58.327Z,996.81
2018-03-09T03:11:38.888Z,996.81
2018-03-09T03:12:19.448Z,996.81
2018-03-09T03:13:00.000Z,996.77
2018-03-09T03:13:40.581Z,996.8
2018-03-09T03:14:21.131Z,996.81
2018-03-09T03:15:01.681Z,996.78
2018-03-09T03:15:42.232Z,996.84
2018-03-09T03:16:22.805Z,996.89
2018-03-09T03:17:03.363Z,996.87
2018-03-09T03:17:44.075Z,996.88
2018-03-09T03:18:24.640Z,996.85
2018-03-09T03:19:05.191Z,996.83
2018-03-09T03:19:45.746Z,996.84
2018-03-09T03:20:26.301Z,996.89
2018-03-09T03:21:06.874Z,996.93
2018-03-09T03:21:47.439Z,996.91
2018-03-09T03:22:28.058Z,996.91
2018-03-09T03:23:08.565Z,996.92
2018-03-09T03:23:49.125Z,996.94
2018-03-09T03:24:29.682Z,996.87
2018-03-09T03:25:10.245Z,996.9
2018-03-09T03:25:50.793Z,996.85
2018-03-09T03:26:31.346Z,996.9
2018-03-09T03:27:11.901Z,996.91
2018-03-09T03:27:52.462Z,996.9
2018-03-09T03:28:33.036Z,996.86
2018-03-09T03:29:13.590Z,996.9
2018-03-09T03:29:54.162Z,996.92
2018-03-09T03:30:34.728Z,996.94
2018-03-09T03:31:15.282Z,996.98
2018-03-09T03:31:55.904Z,996.98
2018-03-09T03:32:36.494Z,996.94
2018-03-09T03:33:17.063Z,996.94
2018-03-09T03:33:57.618Z,996.97
2018-03-09T03:34:38.172Z,997.01
2018-03-09T03:35:18.728Z,996.94
2018-03-09T03:35:59.278Z,996.96
2018-03-09T03:36:39.834Z,996.98
2018-03-09T03:37:20.389Z,997
2018-03-09T03:38:00.956Z,996.95
2018-03-09T03:38:41.513Z,996.97
2018-03-09T03:39:22.087Z,996.98
2018-03-09T03:40:02.652Z,996.97
2018-03-09T03:40:43.200Z,996.96
2018-03-09T03:41:23.760Z,997
2018-03-09T03:42:04.318Z,996.98
2018-03-09T03:42:44.877Z,996.98
2018-03-09T03:43:25.429Z,997.03
2018-03-09T03:44:06.030Z,997.05
2018-03-09T03:44:46.611Z,997.01
2018-03-09T03:45:27.178Z,997.01
2018-03-09T03:46:07.743Z,996.98
2018-03-09T03:46:48.294Z,997.03
2018-03-09T03:47:28.847Z,997.04
2018-03-09T03:48:09.420Z,997.05
2018-03-09T03:48:50.020Z,997
2018-03-09T03:49:30.584Z,997.03
2018-03-09T03:50:11.225Z,997.05
2018-03-09T03:50:51.787Z,997.05
2018-03-09T03:51:32.358Z,996.98
2018-03-09T03:52:12.905Z,997.07
2018-03-09T03:52:53.464Z,997.06
2018-03-09T03:53:34.021Z,997.12
2018-03-09T03:54:14.572Z,997.08
2018-03-09T03:54:55.128Z,997.05
2018-03-09T03:55:35.685Z,997.09
2018-03-09T03:56:16.242Z,997.12
2018-03-09T03:56:56.916Z,997.09
2018-03-09T03:57:37.438Z,997.09
2018-03-09T03:58:17.995Z,997.08
2018-03-09T03:58:58.552Z,997.09
2018-03-09T03:59:39.108Z,997.07
2018-03-09T04:00:19.669Z,997.1
2018-03-09T04:01:00.231Z,997.12
2018-03-09T04:01:40.785Z,997.1
2018-03-09T04:02:21.340Z,997.12
2018-03-09T04:03:01.898Z,997.17
2018-03-09T04:03:42.450Z,997.17
2018-03-09T04:04:23.011Z,997.19
2018-03-09T04:05:03.557Z,997.18
2018-03-09T04:05:44.120Z,997.16
2018-03-09T04:06:24.674Z,997.14
2018-03-09T04:07:05.228Z,997.15
2018-03-09T04:07:45.784Z,997.17
2018-03-09T04:08:26.326Z,997.16
2018-03-09T04:09:06.884Z,997.13
2018-03-09T04:09:47.500Z,997.11
2018-03-09T04:10:28.054Z,997.15
2018-03-09T04:11:08.617Z,997.17
2018-03-09T04:11:49.172Z,997.21
2018-03-09T04:12:29.778Z,997.22
2018-03-09T04:13:10.344Z,997.21
2018-03-09T04:13:50.909Z,997.26
2018-03-09T04:14:31.460Z,997.23
2018-03-09T04:15:12.016Z,997.22
2018-03-09T04:15:52.638Z,997.19
2018-03-09T04:16:33.200Z,997.23
2018-03-09T04:17:13.776Z,997.17
2018-03-09T04:17:54.347Z,997.24
2018-03-09T04:18:34.951Z,997.25
2018-03-09T04:19:15.511Z,997.25
2018-03-09T04:19:56.065Z,997.24
2018-03-09T04:20:36.623Z,997.28
2018-03-09T04:21:17.212Z,997.3
2018-03-09T04:21:57.792Z,997.28
2018-03-09T04:22:38.357Z,997.28
2018-03-09T04:23:18.958Z,997.3
2018-03-09T04:23:59.505Z,997.24
2018-03-09T04:24:40.062Z,997.25
2018-03-09T04:25:20.658Z,997.31
2018-03-09T04:26:01.221Z,997.31
2018-03-09T04:26:41.780Z,997.29
2018-03-09T04:27:22.334Z,997.34
2018-03-09T04:28:02.878Z,997.33
2018-03-09T04:28:43.553Z,997.34
2018-03-09T04:29:24.118Z,997.3
2018-03-09T04:30:04.680Z,997.36
2018-03-09T04:30:45.215Z,997.36
2018-03-09T04:31:25.767Z,997.38
2018-03-09T04:32:06.324Z,997.37
2018-03-09T04:32:46.895Z,997.4
2018-03-09T04:33:27.562Z,997.38
2018-03-09T04:34:08.114Z,997.4
2018-03-09T04:34:48.690Z,997.42
2018-03-09T04:35:29.238Z,997.42
2018-03-09T04:36:09.796Z,997.38
2018-03-09T04:36:50.352Z,997.45
2018-03-09T04:37:30.915Z,997.46
2018-03-09T04:38:11.473Z,997.4
2018-03-09T04:38:52.033Z,997.44
2018-03-09T04:39:32.672Z,997.48
2018-03-09T04:40:13.228Z,997.44
2018-03-09T04:40:53.775Z,997.49
2018-03-09T04:41:34.338Z,997.54
2018-03-09T04:42:14.931Z,997.53
2018-03-09T04:42:55.509Z,997.51
2018-03-09T04:43:36.060Z,997.52
2018-03-09T04:44:16.617Z,997.57
2018-03-09T04:44:57.438Z,997.53
2018-03-09T04:45:38.005Z,997.54
2018-03-09T04:46:18.560Z,997.59
2018-03-09T04:46:59.118Z,997.59
2018-03-09T04:47:39.667Z,997.55
2018-03-09T04:48:20.234Z,997.59
2018-03-09T04:49:00.792Z,997.61
2018-03-09T04:49:41.346Z,997.59
2018-03-09T04:50:21.908Z,997.65
2018-03-09T04:51:02.516Z,997.63
2018-03-09T04:51:43.072Z,997.62
2018-03-09T04:52:23.629Z,997.65
2018-03-09T04:53:04.263Z,997.63
2018-03-09T04:53:44.754Z,997.67
2018-03-09T04:54:25.313Z,997.68
2018-03-09T04:55:05.849Z,997.67
2018-03-09T04:55:46.400Z,997.65
2018-03-09T04:56:26.963Z,997.64
2018-03-09T04:57:07.549Z,997.69
2018-03-09T04:57:48.104Z,997.7
2018-03-09T04:58:28.721Z,997.7
2018-03-09T04:59:09.272Z,997.73
2018-03-09T04:59:49.857Z,997.67
2018-03-09T05:00:30.422Z,997.71
2018-03-09T05:01:10.983Z,997.72
2018-03-09T05:01:51.563Z,997.74
2018-03-09T05:02:32.129Z,997.79
2018-03-09T05:03:12.708Z,997.77
2018-03-09T05:03:53.280Z,997.74
2018-03-09T05:04:33.842Z,997.78
2018-03-09T05:05:14.419Z,997.82
2018-03-09T05:05:54.962Z,997.75
2018-03-09T05:06:35.527Z,997.81
2018-03-09T05:07:16.086Z,997.75
2018-03-09T05:07:56.651Z,997.8
2018-03-09T05:08:37.217Z,997.83
2018-03-09T05:09:17.778Z,997.77
2018-03-09T05:09:58.369Z,997.81
2018-03-09T05:10:38.926Z,997.8
2018-03-09T05:11:19.467Z,997.78
2018-03-09T05:12:00.030Z,997.82
2018-03-09T05:12:40.588Z,997.8
2018-03-09T05:13:21.152Z,997.8
2018-03-09T05:14:01.711Z,997.87
2018-03-09T05:14:42.276Z,997.86
2018-03-09T05:15:22.848Z,997.84
2018-03-09T05:16:03.398Z,997.88
2018-03-09T05:16:43.995Z,997.85
2018-03-09T05:17:24.550Z,997.85
2018-03-09T05:18:05.110Z,997.87
2018-03-09T05:18:45.675Z,997.85
2018-03-09T05:19:26.226Z,997.9
2018-03-09T05:20:06.776Z,997.86
2018-03-09T05:20:47.330Z,997.84
2018-03-09T05:21:27.881Z,997.85
2018-03-09T05:22:08.428Z,997.85
2018-03-09T05:22:49.173Z,997.89
2018-03-09T05:23:29.767Z,997.92
2018-03-09T05:24:10.321Z,997.9
2018-03-09T05:24:50.900Z,997.9
2018-03-09T05:25:31.492Z,997.89
2018-03-09T05:26:12.045Z,997.93
2018-03-09T05:26:52.616Z,997.95
2018-03-09T05:27:33.179Z,997.89
2018-03-09T05:28:13.770Z,997.96
2018-03-09T05:28:54.348Z,997.94
2018-03-09T05:29:35.428Z,997.9
2018-03-09T05:30:16.139Z,997.92
2018-03-09T05:30:56.712Z,997.91
2018-03-09T05:31:37.244Z,997.97
2018-03-09T05:32:17.814Z,998.01
2018-03-09T05:32:58.380Z,997.94
2018-03-09T05:33:38.954Z,997.97
2018-03-09T05:34:19.513Z,997.98
2018-03-09T05:35:00.098Z,997.97
2018-03-09T05:35:40.650Z,997.99
2018-03-09T05:36:21.262Z,997.97
2018-03-09T05:37:01.782Z,997.92
2018-03-09T05:37:42.350Z,998.01
2018-03-09T05:38:22.898Z,998
2018-03-09T05:39:03.488Z,998.01
2018-03-09T05:39:44.211Z,998.01
2018-03-09T05:40:24.786Z,998.01
2018-03-09T05:41:05.354Z,998.06
2018-03-09T05:41:45.921Z,997.97
2018-03-09T05:42:26.509Z,998.02
2018-03-09T05:43:07.071Z,998.03
2018-03-09T05:43:47.661Z,997.99
2018-03-09T05:44:28.273Z,998.02
2018-03-09T05:45:08.932Z,998.03
2018-03-09T05:45:49.580Z,998.04
2018-03-09T05:46:30.195Z,998.01
2018-03-09T05:47:10.857Z,998.08
2018-03-09T05:47:51.508Z,998.07
2018-03-09T05:48:32.102Z,998.09
2018-03-09T05:49:12.819Z,998.11
2018-03-09T05:49:53.446Z,998.09
2018-03-09T05:50:34.048Z,998.09
2018-03-09T05:51:14.608Z,998.06
2018-03-09T05:51:55.174Z,998.1
2018-03-09T05:52:35.776Z,998.06
2018-03-09T05:53:16.327Z,998.13
2018-03-09T05:53:57.077Z,998.18
2018-03-09T05:54:37.651Z,998.13
2018-03-09T05:55:18.220Z,998.04
2018-03-09T05:55:58.773Z,998.17
2018-03-09T05:56:39.330Z,998.1
2018-03-09T05:57:19.884Z,998.13
2018-03-09T05:58:00.855Z,998.15
2018-03-09T05:58:41.370Z,998.19
2018-03-09T05:59:21.935Z,998.14
2018-03-09T06:00:02.544Z,998.18
2018-03-09T06:00:43.134Z,998.21
2018-03-09T06:01:23.818Z,998.21
2018-03-09T06:02:04.374Z,998.23
2018-03-09T06:02:44.930Z,998.27
2018-03-09T06:03:25.517Z,998.22
2018-03-09T06:04:06.115Z,998.22
2018-03-09T06:04:46.663Z,998.2
2018-03-09T06:05:27.199Z,998.27
2018-03-09T06:06:07.813Z,998.28
2018-03-09T06:06:48.402Z,998.32
2018-03-09T06:07:29.019Z,998.32
2018-03-09T06:08:09.585Z,998.33
2018-03-09T06:08:50.363Z,998.38
2018-03-09T06:09:30.839Z,998.31
2018-03-09T06:10:11.425Z,998.39
2018-03-09T06:10:52.014Z,998.34
2018-03-09T06:11:32.584Z,998.37
2018-03-09T06:12:13.145Z,998.32
2018-03-09T06:12:53.722Z,998.31
2018-03-09T06:13:34.294Z,998.32
2018-03-09T06:14:14.863Z,998.34
2018-03-09T06:14:55.435Z,998.37
2018-03-09T06:15:36.020Z,998.37
2018-03-09T06:16:16.589Z,998.37
2018-03-09T06:16:57.143Z,998.37
2018-03-09T06:17:37.701Z,998.37
2018-03-09T06:18:18.301Z,998.4
2018-03-09T06:18:58.852Z,998.37
2018-03-09T06:19:39.425Z,998.39
2018-03-09T06:20:20.016Z,998.41
2018-03-09T06:21:00.651Z,998.38
2018-03-09T06:21:41.268Z,998.42
2018-03-09T06:22:21.830Z,998.43
2018-03-09T06:23:02.430Z,998.44
2018-03-09T06:23:43.016Z,998.44
2018-03-09T06:24:23.598Z,998.51
2018-03-09T06:25:04.177Z,998.43
2018-03-09T06:25:44.734Z,998.51
2018-03-09T06:26:25.289Z,998.54
2018-03-09T06:27:05.845Z,998.51
2018-03-09T06:27:46.460Z,998.53
2018-03-09T06:28:27.043Z,998.55
2018-03-09T06:29:07.600Z,998.52
2018-03-09T06:29:48.155Z,998.59
2018-03-09T06:30:28.762Z,998.56
2018-03-09T06:31:09.325Z,998.55
2018-03-09T06:31:49.870Z,998.55
2018-03-09T06:32:30.448Z,998.58
2018-03-09T06:33:11.020Z,998.63
2018-03-09T06:33:51.581Z,998.61
2018-03-09T06:34:32.141Z,998.64
2018-03-09T06:35:12.728Z,998.66
2018-03-09T06:35:53.287Z,998.64
2018-03-09T06:36:33.842Z,998.62
2018-03-09T06:37:14.448Z,998.67
2018-03-09T06:37:55.000Z,998.67
2018-03-09T06:38:35.585Z,998.69
2018-03-09T06:39:16.216Z,998.68
2018-03-09T06:39:56.725Z,998.69
2018-03-09T06:40:37.291Z,998.68
2018-03-09T06:41:17.858Z,998.68
2018-03-09T06:41:58.599Z,998.73
2018-03-09T06:42:39.211Z,998.68
2018-03-09T06:43:19.801Z,998.69
2018-03-09T06:44:00.393Z,998.65
2018-03-09T06:44:40.982Z,998.71
2018-03-09T06:45:21.707Z,998.71
2018-03-09T06:46:02.352Z,998.7
2018-03-09T06:46:42.910Z,998.71
2018-03-09T06:47:23.568Z,998.67
2018-03-09T06:48:04.154Z,998.71
2018-03-09T06:48:44.709Z,998.73
2018-03-09T06:49:25.265Z,998.69
2018-03-09T06:50:05.859Z,998.81
2018-03-09T06:50:46.428Z,998.7
2018-03-09T06:51:27.098Z,998.75
2018-03-09T06:52:07.668Z,998.73
2018-03-09T06:52:48.269Z,998.73
2018-03-09T06:53:28.836Z,998.8
2018-03-09T06:54:09.401Z,998.72
2018-03-09T06:54:49.997Z,998.75
2018-03-09T06:55:30.606Z,998.77
2018-03-09T06:56:11.181Z,998.74
2018-03-09T06:56:51.809Z,998.75
2018-03-09T06:57:32.377Z,998.74
2018-03-09T06:58:13.019Z,998.71
2018-03-09T06:58:53.588Z,998.77
2018-03-09T06:59:34.181Z,998.68
2018-03-09T07:00:14.766Z,998.73
2018-03-09T07:00:55.319Z,998.71
2018-03-09T07:01:35.903Z,998.74
2018-03-09T07:02:16.510Z,998.77
2018-03-09T07:02:57.164Z,998.73
2018-03-09T07:03:37.774Z,998.74
2018-03-09T07:04:18.345Z,998.78
2018-03-09T07:04:58.993Z,998.75
2018-03-09T07:05:39.557Z,998.79
2018-03-09T07:06:20.128Z,998.77
2018-03-09T07:07:00.714Z,998.81
2018-03-09T07:07:41.303Z,998.83
2018-03-09T07:08:21.871Z,998.76
2018-03-09T07:09:02.597Z,998.8
2018-03-09T07:09:43.157Z,998.85
2018-03-09T07:10:23.728Z,998.92
2018-03-09T07:11:04.314Z,998.9
2018-03-09T07:11:44.889Z,998.84
2018-03-09T07:12:25.417Z,998.89
2018-03-09T07:13:06.011Z,998.91
2018-03-09T07:13:46.610Z,998.92
2018-03-09T07:14:27.248Z,998.92
2018-03-09T07:15:07.798Z,998.95
2018-03-09T07:15:48.363Z,998.95
2018-03-09T07:16:28.925Z,998.93
2018-03-09T07:17:09.555Z,999
2018-03-09T07:17:50.049Z,999.05
2018-03-09T07:18:30.643Z,999.03
2018-03-09T07:19:11.224Z,999.05
2018-03-09T07:19:52.041Z,999.1
2018-03-09T07:20:32.549Z,999.08
2018-03-09T07:21:13.103Z,999.11
2018-03-09T07:21:53.666Z,999.1
2018-03-09T07:22:34.310Z,999.12
2018-03-09T07:23:14.937Z,999.11
2018-03-09T07:23:55.620Z,999.14
2018-03-09T07:24:36.266Z,999.18
2018-03-09T07:25:16.908Z,999.12
2018-03-09T07:25:57.693Z,999.15
2018-03-09T07:26:38.294Z,999.12
2018-03-09T07:27:18.867Z,999.12
2018-03-09T07:27:59.429Z,999.15
2018-03-09T07:28:39.988Z,999.22
2018-03-09T07:29:21.502Z,999.21
2018-03-09T07:30:01.650Z,999.2
2018-03-09T07:30:42.295Z,999.23
2018-03-09T07:31:22.979Z,999.16
2018-03-09T07:32:03.548Z,999.22
2018-03-09T07:32:44.115Z,999.25
2018-03-09T07:33:24.728Z,999.22
2018-03-09T07:34:05.286Z,999.26
2018-03-09T07:34:45.889Z,999.24
2018-03-09T07:35:26.514Z,999.25
2018-03-09T07:36:07.073Z,999.26
2018-03-09T07:36:47.666Z,999.25
2018-03-09T07:37:28.218Z,999.26
2018-03-09T07:38:08.774Z,999.31
2018-03-09T07:38:49.337Z,999.29
2018-03-09T07:39:29.895Z,999.36
2018-03-09T07:40:10.462Z,999.3
2018-03-09T07:40:50.999Z,999.31
2018-03-09T07:41:31.596Z,999.35
2018-03-09T07:42:12.150Z,999.35
2018-03-09T07:42:52.709Z,999.37
2018-03-09T07:43:33.272Z,999.35
2018-03-09T07:44:13.953Z,999.41
2018-03-09T07:44:54.514Z,999.39
2018-03-09T07:45:35.105Z,999.38
2018-03-09T07:46:15.668Z,999.37
2018-03-09T07:46:56.238Z,999.45
2018-03-09T07:47:36.837Z,999.46
2018-03-09T07:48:17.398Z,999.42
2018-03-09T07:48:57.965Z,999.42
2018-03-09T07:49:38.544Z,999.44
2018-03-09T07:50:19.147Z,999.42
2018-03-09T07:50:59.832Z,999.42
2018-03-09T07:51:40.482Z,999.46
2018-03-09T07:52:21.011Z,999.48
2018-03-09T07:53:01.596Z,999.49
2018-03-09T07:53:42.202Z,999.44
2018-03-09T07:54:22.718Z,999.42
2018-03-09T07:55:03.291Z,999.5
2018-03-09T07:55:43.906Z,999.49
2018-03-09T07:56:24.456Z,999.62
2018-03-09T07:57:05.023Z,999.51
2018-03-09T07:57:45.662Z,999.47
2018-03-09T07:58:26.188Z,999.51
2018-03-09T07:59:06.748Z,999.42
2018-03-09T07:59:47.299Z,999.47
2018-03-09T08:00:27.875Z,999.58
2018-03-09T08:01:08.431Z,999.6
2018-03-09T08:01:49.024Z,999.59
2018-03-09T08:02:29.572Z,999.55
2018-03-09T08:03:10.131Z,999.56
2018-03-09T08:03:50.775Z,999.6
2018-03-09T08:04:31.440Z,999.61
2018-03-09T08:05:12.011Z,999.52
2018-03-09T08:05:52.582Z,999.59
2018-03-09T08:06:33.173Z,999.57
2018-03-09T08:07:13.738Z,999.64
2018-03-09T08:07:54.303Z,999.55
2018-03-09T08:08:34.862Z,999.58
2018-03-09T08:09:15.464Z,999.6
2018-03-09T08:09:56.023Z,999.61
2018-03-09T08:10:36.584Z,999.58
2018-03-09T08:11:17.209Z,999.68
2018-03-09T08:11:57.822Z,999.57
2018-03-09T08:12:38.431Z,999.63
2018-03-09T08:13:19.085Z,999.59
2018-03-09T08:13:59.698Z,999.63
2018-03-09T08:14:40.268Z,999.6
2018-03-09T08:15:20.831Z,999.71
2018-03-09T08:16:01.380Z,999.7
2018-03-09T08:16:41.984Z,999.58
2018-03-09T08:17:22.551Z,999.68
2018-03-09T08:18:03.164Z,999.65
2018-03-09T08:18:43.915Z,999.71
2018-03-09T08:19:24.464Z,999.72
2018-03-09T08:20:05.099Z,999.75
2018-03-09T08:20:45.571Z,999.71
2018-03-09T08:21:26.205Z,999.73
2018-03-09T08:22:06.754Z,999.78
2018-03-09T08:22:47.386Z,999.75
2018-03-09T08:23:27.905Z,999.87
2018-03-09T08:24:08.466Z,999.78
2018-03-09T08:24:49.027Z,999.8
2018-03-09T08:25:29.590Z,999.78
2018-03-09T08:26:10.158Z,999.77
2018-03-09T08:26:50.919Z,999.79
2018-03-09T08:27:31.490Z,999.78
2018-03-09T08:28:12.029Z,999.77